Time;durP1;ratioP1;P1;durP2;ratioP2;P2;SDS_P1;SDS_P2;PMS_P1;PMS_P2;Temp;Humidity;BMP_temperature;BMP_pressure;BME280_temperature;BME280_humidity;BME280_pressure;Samples;Min_cycle;Max_cycle;Signal;HPM_P1;HPM_P2
2022/01/28 00:00:35;;;;;;;37.28;20.75;;;8.90;99.90;;;;;;5133506;27;20043;-59
2022/01/28 00:03:10;;;;;;;32.78;19.10;;;8.90;99.90;;;;;;5124868;27;20445;-59
2022/01/28 00:05:38;;;;;;;32.67;20.55;;;8.90;99.90;;;;;;5133529;27;20088;-60
2022/01/28 00:08:06;;;;;;;29.52;19.98;;;8.90;99.90;;;;;;5128079;27;20047;-59
2022/01/28 00:10:34;;;;;;;29.05;18.10;;;8.90;99.90;;;;;;5133476;27;20051;-60
2022/01/28 00:15:41;;;;;;;25.77;17.90;;;8.90;99.90;;;;;;5107464;27;20054;-60
2022/01/28 00:39:41;;;;;;;26.98;17.60;;;8.90;99.90;;;;;;5132516;28;20039;-59
2022/01/28 00:42:08;;;;;;;23.17;16.55;;;8.90;99.90;;;;;;5121377;28;20047;-60
2022/01/28 00:44:36;;;;;;;28.30;17.90;;;8.80;99.90;;;;;;5132690;28;20401;-59
2022/01/28 00:47:04;;;;;;;25.20;16.92;;;8.80;99.90;;;;;;5114971;27;20046;-60
2022/01/28 00:49:32;;;;;;;27.05;16.73;;;8.80;99.90;;;;;;5136851;27;20100;-60
2022/01/28 00:51:59;;;;;;;25.52;17.17;;;8.80;99.90;;;;;;5135354;27;20035;-60
2022/01/28 00:54:27;;;;;;;27.85;17.10;;;8.80;99.90;;;;;;5119040;27;20549;-60
2022/01/28 00:56:54;;;;;;;30.30;18.20;;;8.80;99.90;;;;;;5118011;27;20046;-60
2022/01/28 00:59:22;;;;;;;30.40;19.95;;;8.70;99.90;;;;;;5088557;27;20492;-60
2022/01/28 01:01:49;;;;;;;32.70;19.55;;;8.60;99.90;;;;;;5131801;27;20046;-59
2022/01/28 01:04:18;;;;;;;32.75;19.13;;;8.60;99.90;;;;;;5105474;27;20093;-60
2022/01/28 01:06:45;;;;;;;28.48;20.35;;;8.50;99.90;;;;;;5127448;27;20050;-60
2022/01/28 01:09:13;;;;;;;29.52;18.88;;;8.50;99.90;;;;;;5110839;28;20123;-60
2022/01/28 01:11:41;;;;;;;36.63;22.17;;;8.40;99.90;;;;;;5123188;27;20408;-60
2022/01/28 01:14:09;;;;;;;31.83;20.98;;;8.40;99.90;;;;;;5127262;27;20073;-59
2022/01/28 01:16:56;;;;;;;33.55;20.63;;;8.30;99.90;;;;;;5135300;27;20100;-60
2022/01/28 01:19:27;;;;;;;30.63;20.35;;;8.20;99.90;;;;;;5136507;27;20074;-60
2022/01/28 01:21:58;;;;;;;31.65;20.17;;;8.30;99.90;;;;;;5127309;27;20039;-59
2022/01/28 01:24:28;;;;;;;34.55;20.38;;;8.20;99.90;;;;;;5117850;27;20031;-60
2022/01/28 01:26:59;;;;;;;33.88;21.20;;;8.20;99.90;;;;;;5115830;27;20060;-59
2022/01/28 01:29:27;;;;;;;32.60;22.45;;;8.20;99.90;;;;;;5136637;27;20089;-59
2022/01/28 01:32:02;;;;;;;29.00;19.50;;;8.10;99.90;;;;;;5132980;27;20043;-59
2022/01/28 01:34:29;;;;;;;35.17;21.80;;;8.10;99.90;;;;;;5135964;27;20066;-59
2022/01/28 01:36:57;;;;;;;37.10;21.70;;;8.10;99.90;;;;;;5132423;27;20409;-59
2022/01/28 01:39:28;;;;;;;46.78;24.45;;;8.10;99.90;;;;;;5136093;27;20039;-59
2022/01/28 01:42:06;;;;;;;34.72;22.58;;;8.10;99.90;;;;;;5125283;27;20402;-60
2022/01/28 01:52:57;;;;;;;33.95;22.00;;;8.10;99.90;;;;;;5129282;27;20131;-59
2022/01/28 01:55:25;;;;;;;33.28;21.65;;;8.10;99.90;;;;;;5135388;27;20045;-59
2022/01/28 01:57:53;;;;;;;31.08;20.48;;;8.10;99.90;;;;;;5129539;27;20047;-59
2022/01/28 02:00:21;;;;;;;34.33;20.30;;;8.10;99.90;;;;;;5136083;27;20031;-59
2022/01/28 02:02:48;;;;;;;32.65;20.38;;;8.10;99.90;;;;;;5134843;27;20035;-59
2022/01/28 02:05:16;;;;;;;27.15;19.73;;;8.10;99.90;;;;;;5135236;27;20419;-59
2022/01/28 02:07:45;;;;;;;32.13;20.88;;;8.10;99.90;;;;;;5123375;27;20043;-59
2022/01/28 02:10:14;;;;;;;34.00;20.48;;;8.10;99.90;;;;;;5136191;27;20039;-59
2022/01/28 02:12:50;;;;;;;28.83;20.08;;;8.10;99.90;;;;;;5136787;27;20102;-59
2022/01/28 02:15:18;;;;;;;28.52;20.17;;;8.10;99.90;;;;;;5136815;27;20435;-59
2022/01/28 02:17:46;;;;;;;35.20;20.33;;;8.10;99.90;;;;;;5118651;27;20065;-59
2022/01/28 02:20:27;;;;;;;30.00;19.00;;;8.10;99.90;;;;;;5136757;27;20130;-59
2022/01/28 02:22:55;;;;;;;32.75;19.83;;;8.10;99.90;;;;;;5118508;27;20443;-59
2022/01/28 02:25:29;;;;;;;30.58;21.00;;;8.10;99.90;;;;;;5136716;27;20047;-59
2022/01/28 02:28:01;;;;;;;39.42;23.00;;;8.10;99.90;;;;;;5137008;27;20063;-59
2022/01/28 02:30:29;;;;;;;36.15;21.65;;;8.10;99.90;;;;;;5118236;27;20082;-59
2022/01/28 02:33:02;;;;;;;33.35;21.02;;;8.10;99.90;;;;;;5118423;27;20481;-59
2022/01/28 02:35:30;;;;;;;37.15;22.35;;;8.10;99.90;;;;;;5118518;27;20074;-59
2022/01/28 02:37:57;;;;;;;34.75;22.50;;;8.10;99.90;;;;;;5136428;27;20047;-59
2022/01/28 02:40:25;;;;;;;27.77;18.80;;;8.10;99.90;;;;;;5118413;27;20043;-59
2022/01/28 02:43:01;;;;;;;30.30;19.63;;;8.10;99.90;;;;;;5136355;27;20062;-59
2022/01/28 02:45:34;;;;;;;28.50;18.00;;;8.10;99.90;;;;;;5136232;27;20469;-59
2022/01/28 02:48:07;;;;;;;28.55;18.63;;;8.10;99.90;;;;;;5136167;27;20043;-59
2022/01/28 02:50:52;;;;;;;25.83;16.88;;;8.10;99.90;;;;;;5136423;27;20046;-60
2022/01/28 02:53:25;;;;;;;25.88;17.02;;;8.10;99.90;;;;;;5135510;27;20096;-60
2022/01/28 02:55:59;;;;;;;27.55;16.88;;;8.10;99.90;;;;;;5135142;27;20051;-59
2022/01/28 02:58:27;;;;;;;33.17;17.50;;;8.20;99.90;;;;;;5135926;27;20040;-59
2022/01/28 03:00:56;;;;;;;25.35;17.38;;;8.10;99.90;;;;;;5117920;27;20039;-59
2022/01/28 03:03:24;;;;;;;24.02;19.05;;;8.10;99.90;;;;;;5117845;27;20035;-59
2022/01/28 03:05:53;;;;;;;27.52;17.92;;;8.10;99.90;;;;;;5100275;27;20051;-59
2022/01/28 03:08:24;;;;;;;28.50;17.27;;;8.10;99.90;;;;;;5100619;27;20134;-59
2022/01/28 03:16:27;;;;;;;27.35;17.58;;;8.00;99.90;;;;;;5117577;27;20088;-59
2022/01/28 03:19:19;;;;;;;32.22;18.05;;;7.90;99.90;;;;;;5135875;27;20113;-59
2022/01/28 03:21:45;;;;;;;30.42;17.83;;;7.90;99.90;;;;;;5135455;27;20067;-59
2022/01/28 03:24:13;;;;;;;29.92;18.88;;;7.90;99.90;;;;;;5135718;27;20130;-59
2022/01/28 03:26:40;;;;;;;29.02;17.58;;;7.90;99.90;;;;;;5135306;27;20074;-60
2022/01/28 03:29:08;;;;;;;22.40;17.60;;;7.80;99.90;;;;;;5135432;27;20470;-59
2022/01/28 03:31:38;;;;;;;29.92;18.63;;;7.80;99.90;;;;;;5100301;27;20500;-59
2022/01/28 03:34:06;;;;;;;26.45;18.02;;;7.80;99.90;;;;;;5117211;27;20386;-60
2022/01/28 03:36:33;;;;;;;26.40;17.17;;;7.70;99.90;;;;;;5117160;27;20054;-59
2022/01/28 03:39:02;;;;;;;30.15;18.40;;;7.70;99.90;;;;;;5135351;27;20039;-60
2022/01/28 03:41:29;;;;;;;30.10;18.75;;;7.70;99.90;;;;;;5135310;27;20445;-60
2022/01/28 03:44:00;;;;;;;26.08;17.23;;;7.70;99.90;;;;;;5116914;27;20071;-59
2022/01/28 03:46:29;;;;;;;25.55;16.90;;;7.60;99.90;;;;;;5116843;27;20047;-59
2022/01/28 03:48:57;;;;;;;26.27;17.67;;;7.70;99.90;;;;;;5115972;27;20485;-60
2022/01/28 03:51:26;;;;;;;29.25;18.85;;;7.70;99.90;;;;;;5134983;27;20035;-59
2022/01/28 03:53:53;;;;;;;29.27;18.02;;;7.70;99.90;;;;;;5116957;27;20552;-60
2022/01/28 03:56:21;;;;;;;27.17;16.65;;;7.70;99.90;;;;;;5116780;27;20100;-59
2022/01/28 03:58:49;;;;;;;29.33;18.63;;;7.70;99.90;;;;;;5134868;27;20113;-59
2022/01/28 04:01:21;;;;;;;24.33;15.65;;;7.70;99.90;;;;;;5116707;27;20419;-59
2022/01/28 04:04:17;;;;;;;26.58;17.90;;;7.70;99.90;;;;;;5116701;27;20126;-60
2022/01/28 04:12:09;;;;;;;25.85;16.08;;;7.80;99.90;;;;;;5134863;27;20043;-59
2022/01/28 04:14:46;;;;;;;28.73;16.08;;;7.80;99.90;;;;;;5134726;27;20035;-59
2022/01/28 04:17:23;;;;;;;25.05;16.02;;;7.80;99.90;;;;;;5099609;27;20051;-59
2022/01/28 04:19:51;;;;;;;27.20;16.98;;;7.80;99.90;;;;;;5116564;28;20409;-60
2022/01/28 04:22:20;;;;;;;25.90;16.48;;;7.80;99.90;;;;;;5134494;27;20141;-60
2022/01/28 04:24:48;;;;;;;31.90;17.27;;;7.80;99.90;;;;;;5134820;27;20126;-59
2022/01/28 04:27:16;;;;;;;26.30;16.98;;;7.80;99.90;;;;;;5134683;27;20060;-60
2022/01/28 04:29:44;;;;;;;24.25;15.32;;;7.70;99.90;;;;;;5116342;28;20443;-60
2022/01/28 04:32:12;;;;;;;23.40;15.60;;;7.70;99.90;;;;;;5134433;27;20523;-59
2022/01/28 04:34:39;;;;;;;29.38;18.10;;;7.70;99.90;;;;;;5116000;28;20449;-60
2022/01/28 04:45:03;;;;;;;26.92;16.52;;;7.70;99.90;;;;;;5116594;28;20388;-59
2022/01/28 04:50:16;;;;;;;26.42;15.90;;;7.60;99.90;;;;;;5134340;28;20560;-59
2022/01/28 05:16:47;;;;;;;25.52;16.73;;;7.80;99.90;;;;;;5134042;28;20049;-59
2022/01/28 05:27:13;;;;;;;25.92;15.35;;;7.80;99.90;;;;;;5115652;28;20051;-59
2022/01/28 05:29:40;;;;;;;25.58;13.50;;;7.80;99.90;;;;;;5134027;28;20130;-59
2022/01/28 05:32:09;;;;;;;23.17;13.57;;;7.80;99.90;;;;;;5115250;28;20051;-59
2022/01/28 05:34:38;;;;;;;21.88;13.85;;;7.90;99.90;;;;;;5137556;27;20652;-59
2022/01/28 05:37:06;;;;;;;23.70;14.70;;;7.90;99.90;;;;;;5137641;27;20077;-59
2022/01/28 05:39:34;;;;;;;23.25;13.93;;;7.90;99.90;;;;;;5119558;27;20070;-59
2022/01/28 05:42:03;;;;;;;26.90;16.98;;;7.90;99.90;;;;;;5137859;27;20039;-59
2022/01/28 05:44:30;;;;;;;25.70;14.93;;;7.80;99.90;;;;;;5119494;27;20396;-59
2022/01/28 05:47:02;;;;;;;23.05;16.15;;;7.80;99.90;;;;;;5137339;27;20063;-59
2022/01/28 05:49:30;;;;;;;26.25;15.52;;;7.90;99.90;;;;;;5119139;27;20409;-59
2022/01/28 05:51:58;;;;;;;36.28;19.95;;;7.80;99.90;;;;;;5119039;27;20504;-59
2022/01/28 05:54:26;;;;;;;44.67;30.10;;;7.80;99.90;;;;;;5137255;27;20088;-59
2022/01/28 05:56:53;;;;;;;47.30;28.67;;;7.80;99.90;;;;;;5137467;27;20043;-59
2022/01/28 05:59:21;;;;;;;46.08;27.40;;;7.70;99.90;;;;;;5119110;27;20035;-59
2022/01/28 06:01:48;;;;;;;52.22;33.40;;;7.70;99.90;;;;;;5137562;27;20155;-59
2022/01/28 06:04:16;;;;;;;38.47;27.67;;;7.70;99.90;;;;;;5137309;27;20062;-59
2022/01/28 06:06:44;;;;;;;40.22;22.67;;;7.70;99.90;;;;;;5136877;27;20051;-59
2022/01/28 06:09:11;;;;;;;38.35;25.10;;;7.70;99.90;;;;;;5137193;27;20414;-59
2022/01/28 06:11:39;;;;;;;49.38;31.27;;;7.70;99.90;;;;;;5136986;27;20035;-59
2022/01/28 06:14:06;;;;;;;54.80;33.03;;;7.60;99.90;;;;;;5136734;27;20489;-60
2022/01/28 06:16:34;;;;;;;59.72;40.80;;;7.60;99.90;;;;;;5136570;27;20075;-60
2022/01/28 06:19:02;;;;;;;33.08;23.75;;;7.60;99.90;;;;;;5136447;27;20054;-60
2022/01/28 06:21:29;;;;;;;27.58;18.25;;;7.60;99.90;;;;;;5136709;27;20100;-59
2022/01/28 06:23:57;;;;;;;24.55;16.00;;;7.70;99.90;;;;;;5136731;27;20378;-59
2022/01/28 06:26:24;;;;;;;23.63;17.20;;;7.80;99.90;;;;;;5136273;27;20047;-59
2022/01/28 06:28:53;;;;;;;26.77;15.65;;;7.90;99.90;;;;;;5123913;27;20063;-61
2022/01/28 06:31:21;;;;;;;22.05;15.32;;;8.10;99.90;;;;;;5098424;27;20043;-60
2022/01/28 06:33:49;;;;;;;21.27;16.40;;;8.40;99.90;;;;;;5122587;27;20056;-60
2022/01/28 06:36:20;;;;;;;28.30;20.48;;;8.80;99.90;;;;;;5135825;27;20054;-59
2022/01/28 06:38:49;;;;;;;25.58;18.08;;;9.30;99.90;;;;;;5125100;27;20039;-60
2022/01/28 06:41:16;;;;;;;25.98;17.35;;;9.60;99.90;;;;;;5134547;27;20078;-60
2022/01/28 06:43:44;;;;;;;25.60;16.17;;;9.90;99.90;;;;;;5131451;27;20565;-60
2022/01/28 06:46:11;;;;;;;25.38;17.00;;;10.20;99.90;;;;;;5133874;27;20061;-59
2022/01/28 06:48:39;;;;;;;24.15;14.40;;;10.50;99.90;;;;;;5123914;27;20051;-60
2022/01/28 06:51:07;;;;;;;25.92;15.40;;;11.00;99.90;;;;;;5124356;27;20039;-60
2022/01/28 06:53:34;;;;;;;22.92;15.55;;;11.50;99.90;;;;;;5134599;27;20046;-60
2022/01/28 06:56:02;;;;;;;21.05;14.13;;;12.10;99.90;;;;;;5115893;27;20096;-60
2022/01/28 06:58:30;;;;;;;19.38;13.18;;;12.70;99.00;;;;;;5134346;27;20050;-60
2022/01/28 07:00:57;;;;;;;18.10;10.40;;;13.30;97.90;;;;;;5124268;27;20092;-61
2022/01/28 07:03:25;;;;;;;19.77;12.57;;;14.00;96.70;;;;;;5134821;27;20035;-60
2022/01/28 07:05:53;;;;;;;18.10;12.43;;;14.50;95.80;;;;;;5125284;27;20126;-60
2022/01/28 07:08:23;;;;;;;20.02;12.70;;;14.90;95.10;;;;;;5134668;27;20043;-59
2022/01/28 07:10:51;;;;;;;20.40;14.40;;;15.40;94.40;;;;;;5117569;27;20047;-59
2022/01/28 07:13:18;;;;;;;21.40;12.93;;;15.80;94.00;;;;;;5117284;27;20043;-60
2022/01/28 07:15:48;;;;;;;20.35;12.07;;;16.20;93.30;;;;;;5117146;27;20047;-60
2022/01/28 07:18:15;;;;;;;24.45;14.00;;;16.60;92.80;;;;;;5117777;27;20126;-59
2022/01/28 07:20:43;;;;;;;50.08;33.30;;;16.80;92.30;;;;;;5135690;27;20046;-59
2022/01/28 07:23:10;;;;;;;41.83;29.00;;;16.80;92.20;;;;;;5135447;27;20083;-58
2022/01/28 07:25:38;;;;;;;34.10;22.77;;;16.70;92.30;;;;;;5135250;27;20043;-59
2022/01/28 07:28:06;;;;;;;24.90;17.42;;;16.80;92.20;;;;;;5135270;27;20054;-59
2022/01/28 07:30:34;;;;;;;26.30;19.63;;;16.80;92.10;;;;;;5135312;27;20031;-59
2022/01/28 07:33:05;;;;;;;26.65;19.25;;;17.00;92.10;;;;;;5135539;27;20046;-58
2022/01/28 07:35:33;;;;;;;23.83;14.65;;;17.30;91.80;;;;;;5135529;27;20473;-60
2022/01/28 07:38:01;;;;;;;21.13;14.00;;;17.50;91.40;;;;;;5135037;27;20573;-59
2022/01/28 07:40:29;;;;;;;20.00;13.93;;;17.60;91.20;;;;;;5117234;27;20042;-60
2022/01/28 07:42:57;;;;;;;19.15;13.27;;;17.60;91.30;;;;;;5116898;27;20091;-59
2022/01/28 07:45:25;;;;;;;19.13;12.60;;;17.50;91.30;;;;;;5135014;27;20043;-59
2022/01/28 07:47:53;;;;;;;16.40;12.63;;;17.40;91.30;;;;;;5133952;27;20557;-60
2022/01/28 07:50:21;;;;;;;15.82;10.02;;;17.40;91.30;;;;;;5116450;27;20040;-60
2022/01/28 07:52:48;;;;;;;15.93;9.57;;;17.50;91.30;;;;;;5135170;27;20430;-59
2022/01/28 07:55:16;;;;;;;15.90;12.90;;;17.50;91.30;;;;;;5116335;27;20050;-59
2022/01/28 07:57:45;;;;;;;19.80;15.88;;;17.40;91.10;;;;;;5116796;27;20057;-60
2022/01/28 08:00:14;;;;;;;19.02;13.15;;;17.40;91.30;;;;;;5135044;27;20134;-59
2022/01/28 08:02:43;;;;;;;18.15;14.77;;;17.20;91.10;;;;;;5116687;27;20381;-59
2022/01/28 08:05:11;;;;;;;21.27;13.88;;;16.90;91.50;;;;;;5134987;27;20484;-60
2022/01/28 08:07:39;;;;;;;18.08;12.55;;;16.60;91.80;;;;;;5134703;27;20080;-59
2022/01/28 08:10:07;;;;;;;18.08;13.55;;;16.30;92.30;;;;;;5134598;27;20477;-59
2022/01/28 08:12:48;;;;;;;18.77;14.02;;;16.10;92.90;;;;;;5134729;27;20042;-59
2022/01/28 08:15:18;;;;;;;17.27;11.45;;;15.90;92.90;;;;;;5134924;27;20039;-59
2022/01/28 08:17:45;;;;;;;20.38;12.43;;;15.70;92.80;;;;;;5134626;27;20039;-59
2022/01/28 08:20:13;;;;;;;19.45;12.38;;;15.60;93.50;;;;;;5116543;28;20115;-59
2022/01/28 08:22:49;;;;;;;18.88;11.95;;;15.60;93.90;;;;;;5116266;27;20481;-60
2022/01/28 08:25:18;;;;;;;20.60;11.02;;;15.60;93.90;;;;;;5134618;27;20061;-59
2022/01/28 08:27:46;;;;;;;17.38;10.05;;;15.60;93.90;;;;;;5116393;28;20031;-59
2022/01/28 08:30:17;;;;;;;16.63;11.55;;;15.50;93.90;;;;;;5134597;27;20516;-59
2022/01/28 08:32:45;;;;;;;15.30;10.07;;;15.50;94.40;;;;;;5116369;27;20071;-60
2022/01/28 08:35:14;;;;;;;16.45;11.10;;;15.10;94.60;;;;;;5134553;28;20039;-60
2022/01/28 08:37:42;;;;;;;15.15;9.95;;;14.80;95.20;;;;;;5134461;28;20051;-60
2022/01/28 08:40:12;;;;;;;18.13;11.73;;;14.60;95.60;;;;;;5134711;28;20035;-60
2022/01/28 08:42:40;;;;;;;16.80;11.13;;;14.60;96.10;;;;;;5134532;28;20050;-59
2022/01/28 08:45:08;;;;;;;16.83;11.55;;;14.60;96.50;;;;;;5116182;28;20077;-60
2022/01/28 08:47:36;;;;;;;17.88;11.88;;;14.60;96.50;;;;;;5115789;28;20051;-60
2022/01/28 08:50:05;;;;;;;18.42;10.70;;;14.60;96.60;;;;;;5134432;28;20135;-59
2022/01/28 08:52:33;;;;;;;17.50;9.93;;;14.60;96.70;;;;;;5134428;28;20050;-60
2022/01/28 08:55:01;;;;;;;55.90;14.07;;;14.50;96.70;;;;;;5134437;28;20045;-60
2022/01/28 08:57:28;;;;;;;32.70;13.38;;;14.50;96.80;;;;;;5116428;28;20043;-60
2022/01/28 08:59:56;;;;;;;15.73;11.00;;;14.50;96.90;;;;;;5134468;28;20044;-60
2022/01/28 09:02:24;;;;;;;15.48;9.98;;;14.40;97.00;;;;;;5116074;28;20044;-60
2022/01/28 09:04:51;;;;;;;15.20;10.73;;;14.50;97.10;;;;;;5133881;28;20229;-60
2022/01/28 09:07:19;;;;;;;19.73;12.48;;;14.50;97.30;;;;;;5134303;27;20489;-60
2022/01/28 09:09:52;;;;;;;20.98;12.15;;;14.60;97.10;;;;;;5120229;27;20450;-60
2022/01/28 09:12:35;;;;;;;19.80;11.63;;;14.70;96.90;;;;;;5119669;27;20071;-59
2022/01/28 09:15:04;;;;;;;12.30;9.60;;;14.80;96.90;;;;;;5138222;27;20039;-60
2022/01/28 09:17:44;;;;;;;16.92;9.35;;;15.00;96.70;;;;;;5138101;27;20050;-59
2022/01/28 09:20:11;;;;;;;13.55;8.35;;;15.10;96.50;;;;;;5138012;27;20035;-59
2022/01/28 09:22:39;;;;;;;15.57;7.93;;;15.20;96.50;;;;;;5138438;27;20042;-59
2022/01/28 09:25:07;;;;;;;15.75;9.50;;;15.30;96.20;;;;;;5138042;27;20043;-59
2022/01/28 09:27:35;;;;;;;12.43;9.27;;;15.50;95.90;;;;;;5137920;27;20125;-59
2022/01/28 09:30:04;;;;;;;13.15;8.60;;;15.60;95.80;;;;;;5119764;27;20051;-60
2022/01/28 09:32:32;;;;;;;15.50;8.75;;;15.60;95.80;;;;;;5119721;27;20043;-59
2022/01/28 09:35:00;;;;;;;11.18;7.85;;;15.60;95.20;;;;;;5137778;27;20445;-60
2022/01/28 09:37:28;;;;;;;11.32;8.13;;;15.60;95.30;;;;;;5137662;27;20546;-60
2022/01/28 09:39:56;;;;;;;12.68;8.10;;;15.70;95.00;;;;;;5119431;27;20485;-60
2022/01/28 09:42:29;;;;;;;9.70;7.25;;;15.70;94.90;;;;;;5119111;27;20509;-60
2022/01/28 09:45:01;;;;;;;10.80;7.40;;;15.80;94.80;;;;;;5116713;27;20442;-60
2022/01/28 09:47:31;;;;;;;12.77;8.95;;;15.80;94.30;;;;;;5124076;27;20039;-60
2022/01/28 09:49:58;;;;;;;11.65;6.72;;;15.90;94.20;;;;;;5117612;27;20543;-60
2022/01/28 09:52:26;;;;;;;10.10;7.03;;;15.90;93.00;;;;;;5122887;27;20402;-60
2022/01/28 09:54:54;;;;;;;9.98;6.28;;;15.90;93.10;;;;;;5136451;27;20081;-59
2022/01/28 09:57:21;;;;;;;10.27;5.90;;;15.90;93.00;;;;;;5095147;27;20046;-60
2022/01/28 09:59:49;;;;;;;10.82;7.32;;;16.00;92.80;;;;;;5136139;27;20085;-60
2022/01/28 10:02:17;;;;;;;9.93;6.38;;;16.10;92.90;;;;;;5116981;27;20047;-61
2022/01/28 10:04:45;;;;;;;9.20;5.93;;;16.10;92.70;;;;;;5117835;27;20409;-62
2022/01/28 10:07:16;;;;;;;5.97;4.88;;;16.20;92.50;;;;;;5116328;27;20031;-61
2022/01/28 10:09:57;;;;;;;8.02;5.72;;;16.30;91.90;;;;;;5135580;27;20122;-61
2022/01/28 10:12:34;;;;;;;8.95;6.60;;;16.40;91.50;;;;;;5132724;27;20512;-62
2022/01/28 10:15:16;;;;;;;9.70;6.72;;;16.30;91.30;;;;;;5135265;27;20039;-61
2022/01/28 10:17:58;;;;;;;11.52;7.10;;;16.30;91.00;;;;;;5124124;27;20043;-61
2022/01/28 10:20:27;;;;;;;11.85;6.72;;;16.40;90.90;;;;;;5117172;27;20122;-61
2022/01/28 10:23:04;;;;;;;11.35;7.22;;;16.40;90.80;;;;;;5134296;27;20205;-62
2022/01/28 10:25:34;;;;;;;10.00;7.50;;;16.50;90.70;;;;;;5100036;27;20043;-61
2022/01/28 10:28:03;;;;;;;14.57;9.43;;;16.50;90.60;;;;;;5129484;27;20043;-62
2022/01/28 10:30:36;;;;;;;14.38;9.75;;;16.40;90.70;;;;;;5099365;27;20500;-61
2022/01/28 10:33:14;;;;;;;16.83;11.32;;;16.50;90.70;;;;;;5130004;27;20557;-61
2022/01/28 10:35:56;;;;;;;15.60;10.85;;;16.40;90.50;;;;;;5136392;27;20216;-61
2022/01/28 10:38:42;;;;;;;13.05;8.55;;;16.40;90.70;;;;;;5136529;27;20049;-62
2022/01/28 10:41:24;;;;;;;12.60;8.73;;;16.50;91.00;;;;;;5136334;27;20485;-62
2022/01/28 10:43:55;;;;;;;13.93;7.80;;;16.40;91.10;;;;;;5101023;27;20292;-61
2022/01/28 10:46:31;;;;;;;9.68;6.57;;;16.40;90.90;;;;;;5118379;27;20469;-61
2022/01/28 10:49:02;;;;;;;7.90;6.50;;;16.50;90.90;;;;;;5136643;27;20070;-61
2022/01/28 10:51:43;;;;;;;8.07;5.60;;;16.50;90.30;;;;;;5116908;27;20051;-61
2022/01/28 10:54:22;;;;;;;8.10;5.35;;;16.50;89.20;;;;;;5117706;27;20069;-62
2022/01/28 10:56:56;;;;;;;8.38;5.20;;;16.60;88.00;;;;;;5100795;27;20039;-61
2022/01/28 10:59:28;;;;;;;7.32;4.95;;;16.70;87.50;;;;;;5118029;27;20527;-62
2022/01/28 11:01:56;;;;;;;7.97;4.63;;;16.70;87.50;;;;;;5136281;27;20063;-62
2022/01/28 11:04:24;;;;;;;8.63;5.57;;;16.70;86.80;;;;;;5135863;27;20043;-61
2022/01/28 11:06:55;;;;;;;9.25;5.22;;;16.70;86.80;;;;;;5136095;27;20043;-62
2022/01/28 11:09:23;;;;;;;8.40;5.57;;;16.80;86.30;;;;;;5135968;27;20427;-62
2022/01/28 11:11:53;;;;;;;7.10;5.38;;;16.70;86.00;;;;;;5136047;27;20039;-62
2022/01/28 11:14:22;;;;;;;9.05;5.80;;;16.70;86.50;;;;;;5117919;27;20512;-61
2022/01/28 11:16:50;;;;;;;9.52;6.03;;;16.80;86.60;;;;;;5135502;27;20047;-61
2022/01/28 11:19:20;;;;;;;7.15;4.97;;;16.70;86.10;;;;;;5135794;27;20078;-62
2022/01/28 11:22:20;;;;;;;6.30;4.63;;;16.70;85.10;;;;;;5083948;27;20051;-62
2022/01/28 11:25:26;;;;;;;7.43;5.32;;;16.70;84.60;;;;;;5135682;27;20389;-62
2022/01/28 11:27:54;;;;;;;9.30;6.32;;;16.70;84.90;;;;;;5117077;27;20370;-61
2022/01/28 11:30:25;;;;;;;8.77;5.68;;;16.70;85.20;;;;;;5135265;27;20051;-61
2022/01/28 11:33:01;;;;;;;7.60;5.63;;;16.80;84.30;;;;;;5135665;27;20058;-62
2022/01/28 11:35:37;;;;;;;7.22;5.15;;;16.70;82.70;;;;;;5135328;27;20112;-61
2022/01/28 11:38:24;;;;;;;8.32;4.43;;;16.80;82.30;;;;;;5135428;27;20047;-61
2022/01/28 11:40:54;;;;;;;10.75;5.25;;;16.60;82.20;;;;;;5135522;27;20039;-62
2022/01/28 11:43:25;;;;;;;6.78;4.93;;;16.60;82.20;;;;;;5117349;27;20393;-62
2022/01/28 11:46:10;;;;;;;7.70;5.60;;;16.50;80.80;;;;;;5135233;27;20046;-62
2022/01/28 11:48:54;;;;;;;9.30;5.75;;;16.50;81.40;;;;;;5134931;27;20055;-61
2022/01/28 11:51:23;;;;;;;8.55;5.15;;;16.50;81.60;;;;;;5135284;27;20088;-61
2022/01/28 11:53:56;;;;;;;10.18;5.82;;;16.40;81.60;;;;;;5116567;27;20370;-62
2022/01/28 11:56:25;;;;;;;9.50;5.57;;;16.30;81.70;;;;;;5135188;27;20042;-62
2022/01/28 11:58:54;;;;;;;7.07;5.70;;;16.30;81.80;;;;;;5134851;27;20066;-62
2022/01/28 12:01:25;;;;;;;7.88;5.65;;;16.30;81.40;;;;;;5116834;27;20070;-62
2022/01/28 12:04:31;;;;;;;7.32;5.07;;;16.40;80.10;;;;;;5134962;27;20043;-61
2022/01/28 12:07:05;;;;;;;6.93;5.03;;;16.40;81.40;;;;;;5134776;27;20050;-61
2022/01/28 12:09:34;;;;;;;7.72;6.45;;;16.40;80.10;;;;;;5134859;27;20076;-61
2022/01/28 12:12:03;;;;;;;9.40;5.65;;;16.40;79.90;;;;;;5099332;27;20502;-61
2022/01/28 12:15:11;;;;;;;8.82;5.40;;;16.40;80.00;;;;;;5134826;27;20100;-62
2022/01/28 12:18:04;;;;;;;7.90;5.15;;;16.40;80.70;;;;;;5132829;27;20058;-62
2022/01/28 12:20:45;;;;;;;8.05;5.53;;;16.40;80.70;;;;;;5109936;27;20082;-62
2022/01/28 12:23:25;;;;;;;7.38;5.18;;;16.40;80.80;;;;;;5116582;28;20059;-62
2022/01/28 12:25:57;;;;;;;7.00;4.97;;;16.40;80.20;;;;;;5099658;27;20043;-61
2022/01/28 12:28:31;;;;;;;9.05;5.60;;;16.40;79.80;;;;;;5134446;27;20043;-61
2022/01/28 12:31:04;;;;;;;7.28;5.60;;;16.40;79.80;;;;;;5134728;27;20085;-61
2022/01/28 12:33:34;;;;;;;11.27;6.28;;;16.30;79.70;;;;;;5116884;28;20129;-62
2022/01/28 12:36:14;;;;;;;9.90;6.50;;;16.20;80.10;;;;;;5134565;27;20134;-62
2022/01/28 12:39:04;;;;;;;11.70;7.25;;;16.10;80.80;;;;;;5116194;28;20051;-62
2022/01/28 12:41:41;;;;;;;12.98;7.35;;;16.00;82.70;;;;;;5135133;27;20043;-62
2022/01/28 12:44:15;;;;;;;8.00;5.60;;;16.00;82.70;;;;;;5120116;27;20096;-62
2022/01/28 12:46:50;;;;;;;10.90;6.10;;;16.00;81.70;;;;;;5138615;27;20040;-62
2022/01/28 12:49:22;;;;;;;9.23;6.25;;;15.80;83.50;;;;;;5119853;27;20497;-62
2022/01/28 12:51:55;;;;;;;9.63;5.18;;;15.80;86.10;;;;;;5138971;27;20411;-62
2022/01/28 12:54:49;;;;;;;10.95;4.65;;;15.70;83.50;;;;;;5138809;27;20043;-62
2022/01/28 12:57:19;;;;;;;14.50;7.53;;;15.60;86.70;;;;;;5135248;27;20141;-61
2022/01/28 12:59:48;;;;;;;11.48;5.95;;;15.50;83.70;;;;;;5119814;27;20047;-61
2022/01/28 13:02:18;;;;;;;9.32;7.18;;;15.40;82.90;;;;;;5120033;27;20047;-61
2022/01/28 13:10:22;;;;;;;15.32;8.48;;;15.20;82.60;;;;;;5137980;27;20504;-61
2022/01/28 13:12:52;;;;;;;11.18;7.82;;;15.00;83.00;;;;;;5120191;27;20460;-61
2022/01/28 13:15:19;;;;;;;13.80;9.10;;;14.80;83.40;;;;;;5138393;27;20122;-61
2022/01/28 13:17:58;;;;;;;12.90;9.30;;;14.70;84.70;;;;;;5119201;27;20062;-61
2022/01/28 13:20:41;;;;;;;8.38;6.80;;;14.70;84.90;;;;;;5137955;27;20039;-61
2022/01/28 13:23:11;;;;;;;12.40;9.13;;;14.70;84.40;;;;;;5138015;27;20532;-61
2022/01/28 13:25:40;;;;;;;21.40;13.10;;;14.80;84.60;;;;;;5137066;27;20050;-61
2022/01/28 13:28:18;;;;;;;16.23;9.43;;;14.80;84.60;;;;;;5119716;27;20049;-61
2022/01/28 13:30:56;;;;;;;12.38;6.85;;;14.80;84.80;;;;;;5118273;27;20051;-61
2022/01/28 13:33:29;;;;;;;10.85;6.85;;;14.80;85.30;;;;;;5119195;27;20439;-61
2022/01/28 13:35:59;;;;;;;9.98;6.40;;;14.70;84.90;;;;;;5118633;27;20509;-61
2022/01/28 13:38:35;;;;;;;11.80;6.53;;;14.70;84.90;;;;;;5118645;27;20481;-61
2022/01/28 13:41:24;;;;;;;10.13;7.43;;;14.80;85.00;;;;;;5119347;27;20100;-61
2022/01/28 13:43:54;;;;;;;10.88;6.78;;;14.70;85.10;;;;;;5137609;27;20043;-61
2022/01/28 13:46:22;;;;;;;9.80;6.72;;;14.70;85.10;;;;;;5118966;27;20088;-61
2022/01/28 13:48:49;;;;;;;11.23;7.18;;;14.70;85.60;;;;;;5137356;27;20060;-61
2022/01/28 13:51:21;;;;;;;10.82;7.43;;;14.70;85.20;;;;;;5137086;27;20120;-61
2022/01/28 13:54:15;;;;;;;9.90;6.40;;;14.70;85.50;;;;;;5136548;27;20042;-61
2022/01/28 13:56:46;;;;;;;12.43;7.60;;;14.70;85.70;;;;;;5118717;27;20493;-61
2022/01/28 13:59:25;;;;;;;9.85;7.45;;;14.60;86.10;;;;;;5137176;27;20043;-62
2022/01/28 14:01:56;;;;;;;9.95;6.95;;;14.60;86.10;;;;;;5137027;27;20050;-62
2022/01/28 14:04:35;;;;;;;13.35;7.50;;;14.60;85.80;;;;;;5118667;27;20039;-62
2022/01/28 14:07:22;;;;;;;11.93;7.72;;;14.60;85.90;;;;;;5136964;27;20050;-62
2022/01/28 14:09:59;;;;;;;11.43;8.45;;;14.50;86.20;;;;;;5118146;27;20439;-62
2022/01/28 14:12:37;;;;;;;10.60;7.10;;;14.50;86.00;;;;;;5136717;27;20452;-62
2022/01/28 14:15:13;;;;;;;10.68;5.93;;;14.40;85.80;;;;;;5136518;27;20496;-62
2022/01/28 14:17:42;;;;;;;12.13;6.53;;;14.40;86.20;;;;;;5137003;27;20046;-61
2022/01/28 14:20:11;;;;;;;11.02;6.55;;;14.40;86.50;;;;;;5118265;27;20148;-61
2022/01/28 14:22:38;;;;;;;10.65;7.20;;;14.40;86.80;;;;;;5136603;27;20050;-61
2022/01/28 14:25:06;;;;;;;9.48;7.22;;;14.40;87.10;;;;;;5136578;27;20043;-61
2022/01/28 14:30:18;;;;;;;8.23;6.18;;;14.40;87.00;;;;;;5101235;27;20043;-61